Impacts TAF Board
For situational awareness. Not to be used for flight planning purposes.
IDs:

KISP - Islip/Macarthur Arpt, NY, US

Issued at 0638 UTC 30 Oct 2020
Updated at 0812 UTC 30 Oct 2020
Potential Impact None Slight Moderate High
Time0756Z 30/09Z 30/10Z 30/11Z 30/12Z 30/13Z 30/14Z 30/15Z 30/16Z 30/17Z 30/18Z 30/19Z 30/20Z 30/21Z>>
Type OBS PRVL PRVL PRVL PRVL PRVL PRVL PRVL PRVL PRVL PRVL PRVL PRVL PRVL
VIS 4 3 3 3 3 3 3 3 3 3 3 3 >6 >6
CIG 10 15 12 12 12 12 12 12 12 12 12 12 15 15
Cover OVC OVC OVC OVC OVC OVC OVC OVC OVC OVC OVC OVC OVC OVC
FltCat MVFR MVFR MVFR MVFR MVFR MVFR MVFR MVFR MVFR MVFR MVFR MVFR MVFR MVFR
WX -RA BR -RA BR RA BR RA BR RA BR RA BR RA BR RA BR -RA BR -RA BR -RA BR -RA BR -- --
WDir 30 20 10 10 10 10 10 10 10 10 10 10 360 360
WSpd 15 14 20 20 20 20 20 20 18 18 18 18 14 14
WGst 20 23 27 27 27 27 27 27 25 25 25 25 22 22
Raw TAF
KISP 300638Z 3007/3106 02014G23KT 3SM -RA BR SCT008 OVC015
  FM301000 01020G27KT 3SM RA BR SCT008 OVC012
  FM301600 01018G25KT 3SM -RA BR SCT008 OVC012
  FM302000 36014G22KT P6SM BKN015 OVC050
  FM302200 36011KT P6SM SCT025 BKN035
  FM310100 35007KT P6SM SCT035


Raw METAR
KISP 300756Z AUTO 03015G20KT 4SM -RA BR SCT007 BKN010 OVC019 07/07 A2966 RMK AO2 SLP045 P0003 T00720072
KISP 300656Z AUTO 03014G19KT 5SM -RA BR BKN010 OVC018 08/07 A2966 RMK AO2 SLP042 P0007 T00780072
KISP 300647Z AUTO 03012G21KT 4SM RA BR SCT008 OVC016 08/07 A2965 RMK AO2 P0006 T00780072
KISP 300638Z AUTO 03015KT 3SM -RA BR SCT008 BKN014 OVC019 08/07 A2965 RMK AO2 P0005 T00780072
KISP 300620Z AUTO 03015G22KT 2 1/2SM -RA BR SCT009 BKN015 OVC022 08/08 A2964 RMK AO2 P0000 T00780078
KISP 300617Z AUTO 03015G22KT 3SM -RA BR BKN009 BKN013 OVC019 08/08 A2964 RMK AO2 P0000 T00780078
KISP 300556Z AUTO 02015G26KT 5SM -RA BR BKN011 BKN014 OVC019 08/08 A2964 RMK AO2 PK WND 03026/0554 SLP038 P0002 60012 T00780078 10094 20078 51011

METAR Board
Radar Display
Forecast Discussion
For situational awareness. Not to be used for flight planning purposes.